San Diego, California
Current Conditions -  °F | °C
As of 7:51 AM on Monday 24 Nov 2014 (Local Time) from KSAN Reporting Station
Broken Clouds Broken Clouds  
Wind Chill: 14°   Ceiling: 25000
Heat Index: 14°   Visibility: 10mi
Dew Point: -2°   Wind: 0mph
Humidity: 33%   Direction: NA
Pressure: 30.21"   Gusts: NA
Location:  32.72°N, 117.16°W
Report Text: KSAN 241551Z 00000KT 10SM BKN250 14/M02 A3021 RMK AO2 SLP228 T01391022
Loading
Personal Weather Stations






























Interactive Weather Map New forecast layout! Learn more

10-Day Weather Forecast

Advertisements
Track Severe Weather on mobile